Time,TemperatureF,DewpointF,PressureIn,WindDirection,WindDirectionDegrees,WindSpeedMPH,WindSpeedGustMPH,Humidity,HourlyPrecipIn,Conditions,Clouds,dailyrainin,SoftwareType,DateUTC
2013-04-07 00:05:00,44.9,41.0,29.98,NE,40,1.0,2.0,85,0.00,,,0.00,weatherlink.com 1.10,2013-04-06 22:05:00,
2013-04-07 00:20:00,45.3,41.0,29.99,ENE,58,0.0,1.0,84,0.00,,,0.00,weatherlink.com 1.10,2013-04-06 22:20:00,
2013-04-07 00:35:00,45.5,41.0,29.99,ENE,60,0.0,0.0,84,0.00,,,0.00,weatherlink.com 1.10,2013-04-06 22:35:00,
2013-04-07 00:50:00,46.0,41.0,29.99,ENE,68,2.0,2.0,83,0.00,,,0.00,weatherlink.com 1.10,2013-04-06 22:50:00,
2013-04-07 01:05:00,45.6,41.0,29.99,ENE,71,2.0,3.0,83,0.00,,,0.00,weatherlink.com 1.10,2013-04-06 23:05:00,
2013-04-07 01:20:00,45.4,41.0,30.00,East,79,1.0,2.0,85,0.00,,,0.00,weatherlink.com 1.10,2013-04-06 23:20:00,
2013-04-07 01:35:00,45.2,41.0,30.00,ENE,60,0.0,1.0,85,0.00,,,0.00,weatherlink.com 1.10,2013-04-06 23:35:00,
2013-04-07 01:50:00,45.2,41.0,30.00,East,94,1.0,1.0,85,0.00,,,0.00,weatherlink.com 1.10,2013-04-06 23:50:00,
2013-04-07 02:05:00,45.1,41.0,30.00,NNE,30,2.0,4.0,85,0.00,,,0.00,weatherlink.com 1.10,2013-04-07 00:05:00,
2013-04-07 02:20:00,44.8,42.0,30.00,North,8,1.0,3.0,88,0.00,,,0.00,weatherlink.com 1.10,2013-04-07 00:20:00,
2013-04-07 02:35:00,44.8,41.0,30.00,NNE,15,1.0,2.0,87,0.00,,,0.00,weatherlink.com 1.10,2013-04-07 00:35:00,
2013-04-07 02:50:00,44.8,41.0,30.00,NNW,339,0.0,0.0,87,0.00,,,0.00,weatherlink.com 1.10,2013-04-07 00:50:00,
2013-04-07 03:05:00,45.4,41.0,30.00,ENE,70,1.0,2.0,85,0.00,,,0.00,weatherlink.com 1.10,2013-04-07 01:05:00,
2013-04-07 03:20:00,45.6,41.0,30.00,NE,40,1.0,2.0,84,0.00,,,0.00,weatherlink.com 1.10,2013-04-07 01:20:00,
2013-04-07 03:35:00,45.7,41.0,30.00,ENE,63,1.0,1.0,84,0.00,,,0.00,weatherlink.com 1.10,2013-04-07 01:35:00,
2013-04-07 03:50:00,45.9,41.0,30.00,NE,55,0.0,1.0,84,0.00,,,0.00,weatherlink.com 1.10,2013-04-07 01:50:00,
2013-04-07 04:05:00,45.8,42.0,30.00,ENE,60,2.0,5.0,85,0.00,,,0.00,weatherlink.com 1.10,2013-04-07 02:05:00,
2013-04-07 04:20:00,45.5,42.0,30.00,East,95,3.0,4.0,86,0.00,,,0.00,weatherlink.com 1.10,2013-04-07 02:20:00,
2013-04-07 04:35:00,45.3,41.0,30.00,NE,40,2.0,3.0,86,0.00,,,0.00,weatherlink.com 1.10,2013-04-07 02:35:00,
2013-04-07 04:50:00,45.3,41.0,29.99,NE,46,0.0,2.0,85,0.00,,,0.00,weatherlink.com 1.10,2013-04-07 02:50:00,
2013-04-07 05:05:00,45.6,41.0,30.00,ENE,67,1.0,2.0,84,0.00,,,0.00,weatherlink.com 1.10,2013-04-07 03:05:00,
2013-04-07 05:20:00,45.9,41.0,30.00,NE,44,1.0,3.0,82,0.00,,,0.00,weatherlink.com 1.10,2013-04-07 03:20:00,
2013-04-07 05:35:00,46.5,41.0,30.00,East,99,0.0,1.0,80,0.00,,,0.00,weatherlink.com 1.10,2013-04-07 03:35:00,
2013-04-07 05:51:00,47.2,41.0,30.00,NNE,30,0.0,1.0,78,0.00,,,0.00,weatherlink.com 1.10,2013-04-07 03:51:00,
2013-04-07 06:06:00,47.3,41.0,29.99,South,181,0.0,1.0,79,0.00,,,0.00,weatherlink.com 1.10,2013-04-07 04:06:00,
2013-04-07 06:21:00,47.9,41.0,29.99,WNW,285,0.0,3.0,78,0.00,,,0.00,weatherlink.com 1.10,2013-04-07 04:21:00,
2013-04-07 06:36:00,47.6,42.0,29.99,NNE,28,1.0,2.0,81,0.00,,,0.00,weatherlink.com 1.10,2013-04-07 04:36:00,
2013-04-07 06:51:00,47.4,42.0,30.00,NE,52,2.0,3.0,81,0.00,,,0.00,weatherlink.com 1.10,2013-04-07 04:51:00,
2013-04-07 07:06:00,47.4,42.0,30.00,NE,39,2.0,2.0,82,0.00,,,0.00,weatherlink.com 1.10,2013-04-07 05:06:00,
2013-04-07 07:21:00,46.9,43.0,30.01,NE,49,4.0,4.0,85,0.00,,,0.00,weatherlink.com 1.10,2013-04-07 05:21:00,
2013-04-07 07:36:00,46.6,42.0,30.01,NNE,23,2.0,4.0,85,0.00,,,0.00,weatherlink.com 1.10,2013-04-07 05:36:00,
2013-04-07 10:02:00,54.1,45.0,30.05,ENE,71,3.0,8.0,70,0.00,,,0.00,weatherlink.com 1.10,2013-04-07 08:02:00,
2013-04-07 10:40:00,55.9,44.0,30.05,East,86,10.0,13.0,64,0.00,,,0.00,weatherlink.com 1.10,2013-04-07 08:40:00,
2013-04-07 10:52:00,56.1,44.0,30.05,ESE,113,6.0,10.0,64,0.00,,,0.00,weatherlink.com 1.10,2013-04-07 08:52:00,
2013-04-07 11:07:00,56.8,42.0,30.05,ENE,63,3.0,6.0,58,0.00,,,0.00,weatherlink.com 1.10,2013-04-07 09:07:00,
2013-04-07 11:22:00,57.6,42.0,30.05,SE,125,4.0,9.0,56,0.00,,,0.00,weatherlink.com 1.10,2013-04-07 09:22:00,
2013-04-07 11:37:00,58.6,41.0,30.05,SSE,149,2.0,5.0,52,0.00,,,0.00,weatherlink.com 1.10,2013-04-07 09:37:00,
2013-04-07 11:52:00,58.5,41.0,30.05,ESE,108,6.0,6.0,53,0.00,,,0.00,weatherlink.com 1.10,2013-04-07 09:52:00,
2013-04-07 12:07:00,59.2,43.0,30.05,ESE,105,4.0,7.0,55,0.00,,,0.00,weatherlink.com 1.10,2013-04-07 10:07:00,
2013-04-07 12:22:00,59.7,42.0,30.05,ESE,122,4.0,9.0,52,0.00,,,0.00,weatherlink.com 1.10,2013-04-07 10:22:00,
2013-04-07 12:37:00,59.9,43.0,30.04,SSW,209,3.0,6.0,54,0.00,,,0.00,weatherlink.com 1.10,2013-04-07 10:37:00,
2013-04-07 12:52:00,60.5,42.0,30.04,ESE,114,5.0,9.0,50,0.00,,,0.00,weatherlink.com 1.10,2013-04-07 10:52:00,
2013-04-07 13:07:00,60.8,41.0,30.04,ESE,118,5.0,9.0,49,0.00,,,0.00,weatherlink.com 1.10,2013-04-07 11:07:00,
2013-04-07 13:22:00,61.7,44.0,30.03,ESE,115,9.0,10.0,52,0.00,,,0.00,weatherlink.com 1.10,2013-04-07 11:22:00,
2013-04-07 13:37:00,60.9,42.0,30.02,NE,39,6.0,10.0,51,0.00,,,0.00,weatherlink.com 1.10,2013-04-07 11:37:00,
2013-04-07 13:52:00,61.7,43.0,30.02,East,92,4.0,8.0,50,0.00,,,0.00,weatherlink.com 1.10,2013-04-07 11:52:00,
2013-04-07 14:07:00,61.8,43.0,30.01,ENE,70,7.0,10.0,50,0.00,,,0.00,weatherlink.com 1.10,2013-04-07 12:07:00,
2013-04-07 14:22:00,61.8,42.0,30.01,West,263,2.0,5.0,49,0.00,,,0.00,weatherlink.com 1.10,2013-04-07 12:22:00,
2013-04-07 14:37:00,61.1,45.0,30.00,SSW,198,9.0,13.0,56,0.00,,,0.00,weatherlink.com 1.10,2013-04-07 12:37:00,
2013-04-07 14:52:00,60.1,46.0,30.01,West,274,7.0,14.0,59,0.00,,,0.00,weatherlink.com 1.10,2013-04-07 12:52:00,
2013-04-07 15:07:00,60.3,45.0,30.00,WNW,283,6.0,13.0,57,0.00,,,0.00,weatherlink.com 1.10,2013-04-07 13:07:00,
2013-04-07 15:22:00,60.2,45.0,30.00,WSW,258,7.0,12.0,57,0.00,,,0.00,weatherlink.com 1.10,2013-04-07 13:22:00,
2013-04-07 15:37:00,60.4,45.0,30.00,West,274,8.0,13.0,58,0.00,,,0.00,weatherlink.com 1.10,2013-04-07 13:37:00,
2013-04-07 15:52:00,60.1,46.0,29.99,WSW,244,6.0,12.0,60,0.00,,,0.00,weatherlink.com 1.10,2013-04-07 13:52:00,
2013-04-07 16:07:00,60.2,47.0,29.99,WNW,290,7.0,12.0,62,0.00,,,0.00,weatherlink.com 1.10,2013-04-07 14:07:00,
2013-04-07 16:22:00,59.6,46.0,29.99,WNW,300,6.0,14.0,62,0.00,,,0.00,weatherlink.com 1.10,2013-04-07 14:22:00,
2013-04-07 16:37:00,59.0,47.0,29.98,WNW,287,9.0,11.0,65,0.00,,,0.00,weatherlink.com 1.10,2013-04-07 14:37:00,
2013-04-07 16:52:00,59.5,48.0,29.98,WSW,249,5.0,14.0,67,0.00,,,0.00,weatherlink.com 1.10,2013-04-07 14:52:00,
2013-04-07 17:08:00,61.2,40.0,29.98,NE,39,18.0,18.0,45,0.00,,,0.00,weatherlink.com 1.10,2013-04-07 15:08:00,
2013-04-07 17:22:00,60.4,35.0,29.99,ENE,61,17.0,18.0,39,0.00,,,0.00,weatherlink.com 1.10,2013-04-07 15:22:00,
2013-04-07 17:38:00,59.9,35.0,29.99,NE,53,15.0,22.0,40,0.00,,,0.00,weatherlink.com 1.10,2013-04-07 15:38:00,
2013-04-07 17:53:00,59.7,35.0,29.99,NNE,26,12.0,19.0,40,0.00,,,0.00,weatherlink.com 1.10,2013-04-07 15:53:00,
2013-04-07 18:08:00,59.5,36.0,29.99,North,359,12.0,20.0,41,0.00,,,0.00,weatherlink.com 1.10,2013-04-07 16:08:00,
2013-04-07 18:23:00,58.3,41.0,29.99,NE,53,11.0,19.0,53,0.00,,,0.00,weatherlink.com 1.10,2013-04-07 16:23:00,
2013-04-07 18:38:00,56.7,43.0,29.99,ENE,68,12.0,20.0,61,0.00,,,0.00,weatherlink.com 1.10,2013-04-07 16:38:00,
2013-04-07 18:53:00,56.0,45.0,30.00,NE,45,12.0,19.0,66,0.00,,,0.00,weatherlink.com 1.10,2013-04-07 16:53:00,
2013-04-07 19:08:00,55.5,45.0,30.00,NE,43,12.0,15.0,67,0.00,,,0.00,weatherlink.com 1.10,2013-04-07 17:08:00,
2013-04-07 19:23:00,55.0,45.0,30.00,NE,41,8.0,16.0,68,0.00,,,0.00,weatherlink.com 1.10,2013-04-07 17:23:00,
2013-04-07 19:38:00,54.7,45.0,30.00,ENE,61,5.0,10.0,70,0.00,,,0.00,weatherlink.com 1.10,2013-04-07 17:38:00,
2013-04-07 19:53:00,54.4,45.0,30.00,NE,44,11.0,12.0,71,0.00,,,0.00,weatherlink.com 1.10,2013-04-07 17:53:00,
2013-04-07 20:08:00,54.1,45.0,30.00,NNE,22,10.0,13.0,72,0.00,,,0.00,weatherlink.com 1.10,2013-04-07 18:08:00,
2013-04-07 20:23:00,53.9,45.0,29.99,NE,34,4.0,14.0,72,0.00,,,0.00,weatherlink.com 1.10,2013-04-07 18:23:00,
2013-04-07 20:38:00,53.5,44.0,29.99,NE,40,7.0,11.0,71,0.00,,,0.00,weatherlink.com 1.10,2013-04-07 18:38:00,
2013-04-07 20:53:00,52.9,44.0,29.99,NE,53,5.0,8.0,72,0.00,,,0.00,weatherlink.com 1.10,2013-04-07 18:53:00,
2013-04-07 21:08:00,52.5,44.0,29.99,NE,54,7.0,7.0,72,0.00,,,0.00,weatherlink.com 1.10,2013-04-07 19:08:00,
2013-04-07 21:23:00,52.0,44.0,30.00,ENE,58,4.0,7.0,74,0.00,,,0.00,weatherlink.com 1.10,2013-04-07 19:23:00,
2013-04-07 21:38:00,51.7,44.0,29.99,NE,54,5.0,6.0,75,0.00,,,0.00,weatherlink.com 1.10,2013-04-07 19:38:00,
2013-04-07 21:53:00,51.4,44.0,29.99,NE,39,6.0,6.0,76,0.00,,,0.00,weatherlink.com 1.10,2013-04-07 19:53:00,
2013-04-07 22:08:00,51.4,44.0,29.99,NE,36,6.0,7.0,77,0.00,,,0.00,weatherlink.com 1.10,2013-04-07 20:08:00,
2013-04-07 22:23:00,51.3,45.0,29.99,ENE,58,2.0,6.0,78,0.00,,,0.00,weatherlink.com 1.10,2013-04-07 20:23:00,
2013-04-07 22:38:00,51.1,45.0,29.99,North,354,2.0,2.0,79,0.00,,,0.00,weatherlink.com 1.10,2013-04-07 20:38:00,
2013-04-07 22:53:00,51.0,45.0,29.98,NE,37,0.0,1.0,80,0.00,,,0.00,weatherlink.com 1.10,2013-04-07 20:53:00,
2013-04-07 23:08:00,51.1,45.0,29.98,ENE,57,2.0,3.0,81,0.00,,,0.00,weatherlink.com 1.10,2013-04-07 21:08:00,
2013-04-07 23:23:00,51.2,46.0,29.98,ENE,67,3.0,4.0,82,0.00,,,0.00,weatherlink.com 1.10,2013-04-07 21:23:00,
2013-04-07 23:38:00,52.2,46.0,29.98,ENE,61,8.0,10.0,80,0.00,,,0.00,weatherlink.com 1.10,2013-04-07 21:38:00,
2013-04-07 23:53:00,52.5,46.0,29.97,North,356,8.0,9.0,79,0.00,,,0.00,weatherlink.com 1.10,2013-04-07 21:53:00,